sensor_id;sensor_type;location;lat;lon;timestamp;P1;durP1;ratioP1;P2;durP2;ratioP2
34200;SDS011;20469;55.638;37.670;2023-09-19T00:01:47;22.65;;;12.43;;
34200;SDS011;20469;55.638;37.670;2023-09-19T00:04:15;19.98;;;12.18;;
34200;SDS011;20469;55.638;37.670;2023-09-19T00:06:42;21.63;;;12.15;;
34200;SDS011;20469;55.638;37.670;2023-09-19T00:09:10;22.20;;;14.20;;
34200;SDS011;20469;55.638;37.670;2023-09-19T00:11:38;22.25;;;13.93;;
34200;SDS011;20469;55.638;37.670;2023-09-19T00:14:05;24.58;;;14.20;;
34200;SDS011;20469;55.638;37.670;2023-09-19T00:16:35;21.50;;;14.48;;
34200;SDS011;20469;55.638;37.670;2023-09-19T00:19:03;25.85;;;15.85;;
34200;SDS011;20469;55.638;37.670;2023-09-19T00:21:34;21.08;;;15.20;;
34200;SDS011;20469;55.638;37.670;2023-09-19T00:24:04;22.50;;;16.55;;
34200;SDS011;20469;55.638;37.670;2023-09-19T00:26:32;25.55;;;16.55;;
34200;SDS011;20469;55.638;37.670;2023-09-19T00:29:01;28.20;;;17.77;;
34200;SDS011;20469;55.638;37.670;2023-09-19T00:31:31;24.80;;;18.70;;
34200;SDS011;20469;55.638;37.670;2023-09-19T00:33:59;26.67;;;18.30;;
34200;SDS011;20469;55.638;37.670;2023-09-19T00:36:33;25.23;;;18.02;;
34200;SDS011;20469;55.638;37.670;2023-09-19T00:39:01;31.55;;;20.73;;
34200;SDS011;20469;55.638;37.670;2023-09-19T00:41:29;31.55;;;23.25;;
34200;SDS011;20469;55.638;37.670;2023-09-19T00:43:57;42.10;;;29.88;;
34200;SDS011;20469;55.638;37.670;2023-09-19T00:46:27;37.58;;;29.40;;
34200;SDS011;20469;55.638;37.670;2023-09-19T00:48:55;42.58;;;31.65;;
34200;SDS011;20469;55.638;37.670;2023-09-19T00:51:23;45.53;;;32.63;;
34200;SDS011;20469;55.638;37.670;2023-09-19T00:53:52;45.90;;;35.10;;
34200;SDS011;20469;55.638;37.670;2023-09-19T00:56:20;44.42;;;34.10;;
34200;SDS011;20469;55.638;37.670;2023-09-19T00:58:48;46.80;;;34.40;;
34200;SDS011;20469;55.638;37.670;2023-09-19T01:01:16;45.03;;;34.05;;
34200;SDS011;20469;55.638;37.670;2023-09-19T01:03:44;49.33;;;34.17;;
34200;SDS011;20469;55.638;37.670;2023-09-19T01:06:12;49.45;;;34.47;;
34200;SDS011;20469;55.638;37.670;2023-09-19T01:08:40;45.40;;;34.15;;
34200;SDS011;20469;55.638;37.670;2023-09-19T01:11:28;44.72;;;33.00;;
34200;SDS011;20469;55.638;37.670;2023-09-19T01:17:05;44.15;;;32.85;;
34200;SDS011;20469;55.638;37.670;2023-09-19T01:22:29;47.45;;;32.13;;
34200;SDS011;20469;55.638;37.670;2023-09-19T01:25:12;48.22;;;32.08;;
34200;SDS011;20469;55.638;37.670;2023-09-19T01:30:46;48.40;;;30.95;;
34200;SDS011;20469;55.638;37.670;2023-09-19T01:33:16;52.60;;;31.75;;
34200;SDS011;20469;55.638;37.670;2023-09-19T01:35:44;50.35;;;32.58;;
34200;SDS011;20469;55.638;37.670;2023-09-19T01:38:12;47.28;;;31.40;;
34200;SDS011;20469;55.638;37.670;2023-09-19T01:40:42;47.88;;;30.50;;
34200;SDS011;20469;55.638;37.670;2023-09-19T01:48:25;43.72;;;28.20;;
34200;SDS011;20469;55.638;37.670;2023-09-19T01:51:01;45.78;;;28.52;;
34200;SDS011;20469;55.638;37.670;2023-09-19T01:53:33;43.80;;;28.70;;
34200;SDS011;20469;55.638;37.670;2023-09-19T01:56:01;41.13;;;28.00;;
34200;SDS011;20469;55.638;37.670;2023-09-19T02:03:41;39.20;;;27.02;;
34200;SDS011;20469;55.638;37.670;2023-09-19T02:06:14;41.78;;;27.38;;
34200;SDS011;20469;55.638;37.670;2023-09-19T02:08:44;40.88;;;26.13;;
34200;SDS011;20469;55.638;37.670;2023-09-19T02:11:12;40.22;;;27.00;;
34200;SDS011;20469;55.638;37.670;2023-09-19T02:13:40;38.13;;;25.85;;
34200;SDS011;20469;55.638;37.670;2023-09-19T02:16:09;38.63;;;25.30;;
34200;SDS011;20469;55.638;37.670;2023-09-19T02:18:38;40.22;;;26.48;;
34200;SDS011;20469;55.638;37.670;2023-09-19T02:21:06;38.92;;;25.25;;
34200;SDS011;20469;55.638;37.670;2023-09-19T02:23:36;39.42;;;26.02;;
34200;SDS011;20469;55.638;37.670;2023-09-19T02:26:06;41.00;;;25.48;;
34200;SDS011;20469;55.638;37.670;2023-09-19T02:28:34;36.20;;;24.58;;
34200;SDS011;20469;55.638;37.670;2023-09-19T02:31:02;36.20;;;24.35;;
34200;SDS011;20469;55.638;37.670;2023-09-19T02:33:34;34.95;;;24.33;;
34200;SDS011;20469;55.638;37.670;2023-09-19T02:36:03;35.78;;;24.55;;
34200;SDS011;20469;55.638;37.670;2023-09-19T02:38:32;40.05;;;25.45;;
34200;SDS011;20469;55.638;37.670;2023-09-19T02:41:00;36.42;;;24.25;;
34200;SDS011;20469;55.638;37.670;2023-09-19T02:43:28;35.75;;;24.38;;
34200;SDS011;20469;55.638;37.670;2023-09-19T02:45:55;34.85;;;23.30;;
34200;SDS011;20469;55.638;37.670;2023-09-19T02:48:23;37.75;;;24.65;;
34200;SDS011;20469;55.638;37.670;2023-09-19T02:50:52;33.33;;;23.15;;
34200;SDS011;20469;55.638;37.670;2023-09-19T02:53:19;36.00;;;23.75;;
34200;SDS011;20469;55.638;37.670;2023-09-19T02:55:47;38.58;;;24.83;;
34200;SDS011;20469;55.638;37.670;2023-09-19T02:58:15;34.65;;;22.30;;
34200;SDS011;20469;55.638;37.670;2023-09-19T03:00:43;34.72;;;24.08;;
34200;SDS011;20469;55.638;37.670;2023-09-19T03:03:14;35.45;;;24.17;;
34200;SDS011;20469;55.638;37.670;2023-09-19T03:05:43;38.60;;;23.75;;
34200;SDS011;20469;55.638;37.670;2023-09-19T03:08:16;34.58;;;23.52;;
34200;SDS011;20469;55.638;37.670;2023-09-19T03:10:46;38.30;;;23.58;;
34200;SDS011;20469;55.638;37.670;2023-09-19T03:13:15;34.70;;;23.42;;
34200;SDS011;20469;55.638;37.670;2023-09-19T03:15:43;34.80;;;23.88;;
34200;SDS011;20469;55.638;37.670;2023-09-19T03:18:13;37.20;;;24.23;;
34200;SDS011;20469;55.638;37.670;2023-09-19T03:20:40;40.38;;;25.02;;
34200;SDS011;20469;55.638;37.670;2023-09-19T03:23:08;37.53;;;24.45;;
34200;SDS011;20469;55.638;37.670;2023-09-19T03:25:36;38.22;;;24.80;;
34200;SDS011;20469;55.638;37.670;2023-09-19T03:28:04;44.25;;;26.58;;
34200;SDS011;20469;55.638;37.670;2023-09-19T03:30:32;42.70;;;24.80;;
34200;SDS011;20469;55.638;37.670;2023-09-19T03:33:00;40.83;;;25.70;;
34200;SDS011;20469;55.638;37.670;2023-09-19T03:35:28;37.58;;;25.48;;
34200;SDS011;20469;55.638;37.670;2023-09-19T03:37:56;43.53;;;26.63;;
34200;SDS011;20469;55.638;37.670;2023-09-19T03:40:23;45.83;;;28.08;;
34200;SDS011;20469;55.638;37.670;2023-09-19T03:42:52;45.58;;;28.50;;
34200;SDS011;20469;55.638;37.670;2023-09-19T03:45:20;41.92;;;26.95;;
34200;SDS011;20469;55.638;37.670;2023-09-19T03:47:48;44.63;;;28.77;;
34200;SDS011;20469;55.638;37.670;2023-09-19T03:50:16;42.83;;;27.75;;
34200;SDS011;20469;55.638;37.670;2023-09-19T03:52:44;39.30;;;26.98;;
34200;SDS011;20469;55.638;37.670;2023-09-19T03:55:12;44.53;;;29.38;;
34200;SDS011;20469;55.638;37.670;2023-09-19T03:57:40;44.13;;;28.50;;
34200;SDS011;20469;55.638;37.670;2023-09-19T04:00:08;40.97;;;28.67;;
34200;SDS011;20469;55.638;37.670;2023-09-19T04:02:40;43.67;;;27.20;;
34200;SDS011;20469;55.638;37.670;2023-09-19T04:05:08;47.22;;;27.45;;
34200;SDS011;20469;55.638;37.670;2023-09-19T04:07:37;45.03;;;27.88;;
34200;SDS011;20469;55.638;37.670;2023-09-19T04:10:05;46.45;;;27.75;;
34200;SDS011;20469;55.638;37.670;2023-09-19T04:12:35;45.33;;;27.55;;
34200;SDS011;20469;55.638;37.670;2023-09-19T04:15:06;44.47;;;27.77;;
34200;SDS011;20469;55.638;37.670;2023-09-19T04:17:35;42.28;;;26.48;;
34200;SDS011;20469;55.638;37.670;2023-09-19T04:20:03;44.38;;;27.33;;
34200;SDS011;20469;55.638;37.670;2023-09-19T04:22:34;42.17;;;25.33;;
34200;SDS011;20469;55.638;37.670;2023-09-19T04:25:02;39.40;;;24.52;;
34200;SDS011;20469;55.638;37.670;2023-09-19T04:27:29;38.10;;;24.33;;
34200;SDS011;20469;55.638;37.670;2023-09-19T04:29:57;37.53;;;24.15;;
34200;SDS011;20469;55.638;37.670;2023-09-19T04:32:29;36.05;;;22.35;;
34200;SDS011;20469;55.638;37.670;2023-09-19T04:37:29;32.22;;;21.45;;
34200;SDS011;20469;55.638;37.670;2023-09-19T04:39:57;33.15;;;21.42;;
34200;SDS011;20469;55.638;37.670;2023-09-19T04:42:25;32.22;;;20.83;;
34200;SDS011;20469;55.638;37.670;2023-09-19T04:44:52;28.67;;;20.63;;
34200;SDS011;20469;55.638;37.670;2023-09-19T04:47:20;27.08;;;18.88;;
34200;SDS011;20469;55.638;37.670;2023-09-19T04:49:49;26.48;;;18.17;;
34200;SDS011;20469;55.638;37.670;2023-09-19T04:52:16;23.13;;;17.48;;
34200;SDS011;20469;55.638;37.670;2023-09-19T04:54:44;24.08;;;17.50;;
34200;SDS011;20469;55.638;37.670;2023-09-19T04:57:12;25.13;;;17.70;;
34200;SDS011;20469;55.638;37.670;2023-09-19T04:59:40;22.67;;;16.60;;
34200;SDS011;20469;55.638;37.670;2023-09-19T05:02:07;25.90;;;16.90;;
34200;SDS011;20469;55.638;37.670;2023-09-19T05:04:35;23.55;;;15.65;;
34200;SDS011;20469;55.638;37.670;2023-09-19T05:07:04;24.85;;;17.05;;
34200;SDS011;20469;55.638;37.670;2023-09-19T05:09:31;24.15;;;16.08;;
34200;SDS011;20469;55.638;37.670;2023-09-19T05:12:01;24.70;;;16.55;;
34200;SDS011;20469;55.638;37.670;2023-09-19T05:14:28;26.33;;;16.70;;
34200;SDS011;20469;55.638;37.670;2023-09-19T05:16:56;22.65;;;16.30;;
34200;SDS011;20469;55.638;37.670;2023-09-19T05:19:24;24.55;;;16.77;;
34200;SDS011;20469;55.638;37.670;2023-09-19T05:21:52;25.13;;;16.75;;
34200;SDS011;20469;55.638;37.670;2023-09-19T05:24:20;23.08;;;15.68;;
34200;SDS011;20469;55.638;37.670;2023-09-19T05:26:50;21.10;;;16.02;;
34200;SDS011;20469;55.638;37.670;2023-09-19T05:29:17;22.77;;;15.75;;
34200;SDS011;20469;55.638;37.670;2023-09-19T05:31:45;25.00;;;16.00;;
34200;SDS011;20469;55.638;37.670;2023-09-19T05:34:13;23.70;;;15.98;;
34200;SDS011;20469;55.638;37.670;2023-09-19T05:36:40;19.95;;;14.02;;
34200;SDS011;20469;55.638;37.670;2023-09-19T05:39:08;23.73;;;16.17;;
34200;SDS011;20469;55.638;37.670;2023-09-19T05:41:36;19.88;;;14.23;;
34200;SDS011;20469;55.638;37.670;2023-09-19T05:44:06;20.02;;;13.88;;
34200;SDS011;20469;55.638;37.670;2023-09-19T05:46:34;20.33;;;14.23;;
34200;SDS011;20469;55.638;37.670;2023-09-19T05:49:01;19.92;;;14.52;;
34200;SDS011;20469;55.638;37.670;2023-09-19T05:51:29;17.85;;;13.90;;
34200;SDS011;20469;55.638;37.670;2023-09-19T05:53:57;20.45;;;14.50;;
34200;SDS011;20469;55.638;37.670;2023-09-19T05:56:25;18.80;;;14.18;;
34200;SDS011;20469;55.638;37.670;2023-09-19T05:58:53;20.45;;;12.75;;
34200;SDS011;20469;55.638;37.670;2023-09-19T06:01:21;17.77;;;13.10;;
34200;SDS011;20469;55.638;37.670;2023-09-19T06:03:49;18.30;;;12.23;;
34200;SDS011;20469;55.638;37.670;2023-09-19T06:06:17;14.52;;;11.80;;
34200;SDS011;20469;55.638;37.670;2023-09-19T06:08:45;17.00;;;12.13;;
34200;SDS011;20469;55.638;37.670;2023-09-19T06:11:13;16.48;;;11.48;;
34200;SDS011;20469;55.638;37.670;2023-09-19T06:13:40;16.65;;;10.48;;
34200;SDS011;20469;55.638;37.670;2023-09-19T06:16:08;17.48;;;10.77;;
34200;SDS011;20469;55.638;37.670;2023-09-19T06:18:36;17.27;;;10.25;;
34200;SDS011;20469;55.638;37.670;2023-09-19T06:21:04;18.77;;;11.40;;
34200;SDS011;20469;55.638;37.670;2023-09-19T06:23:34;13.45;;;9.93;;
34200;SDS011;20469;55.638;37.670;2023-09-19T06:26:02;11.23;;;10.02;;
34200;SDS011;20469;55.638;37.670;2023-09-19T06:28:33;12.82;;;9.68;;
34200;SDS011;20469;55.638;37.670;2023-09-19T06:31:02;13.55;;;10.18;;
34200;SDS011;20469;55.638;37.670;2023-09-19T06:33:30;11.80;;;10.57;;
34200;SDS011;20469;55.638;37.670;2023-09-19T06:35:58;17.13;;;10.60;;
34200;SDS011;20469;55.638;37.670;2023-09-19T06:38:26;13.93;;;10.25;;
34200;SDS011;20469;55.638;37.670;2023-09-19T06:40:54;14.00;;;10.15;;
34200;SDS011;20469;55.638;37.670;2023-09-19T06:43:22;12.93;;;10.60;;
34200;SDS011;20469;55.638;37.670;2023-09-19T06:45:50;13.65;;;10.85;;
34200;SDS011;20469;55.638;37.670;2023-09-19T06:48:18;13.38;;;10.77;;
34200;SDS011;20469;55.638;37.670;2023-09-19T06:50:47;11.93;;;10.45;;
34200;SDS011;20469;55.638;37.670;2023-09-19T06:53:15;15.32;;;11.35;;
34200;SDS011;20469;55.638;37.670;2023-09-19T06:55:44;15.02;;;11.48;;
34200;SDS011;20469;55.638;37.670;2023-09-19T06:58:11;16.77;;;12.57;;
34200;SDS011;20469;55.638;37.670;2023-09-19T07:00:39;14.38;;;11.52;;
34200;SDS011;20469;55.638;37.670;2023-09-19T07:03:07;16.30;;;12.30;;
34200;SDS011;20469;55.638;37.670;2023-09-19T07:05:39;14.25;;;11.85;;
34200;SDS011;20469;55.638;37.670;2023-09-19T07:08:07;16.92;;;12.52;;
34200;SDS011;20469;55.638;37.670;2023-09-19T07:10:40;16.77;;;13.93;;
34200;SDS011;20469;55.638;37.670;2023-09-19T07:13:16;21.95;;;13.45;;
34200;SDS011;20469;55.638;37.670;2023-09-19T07:15:44;17.92;;;13.75;;
34200;SDS011;20469;55.638;37.670;2023-09-19T07:18:17;19.50;;;14.13;;
34200;SDS011;20469;55.638;37.670;2023-09-19T07:20:47;17.17;;;13.40;;
34200;SDS011;20469;55.638;37.670;2023-09-19T07:23:18;17.58;;;13.55;;
34200;SDS011;20469;55.638;37.670;2023-09-19T07:25:48;20.92;;;14.18;;
34200;SDS011;20469;55.638;37.670;2023-09-19T07:28:16;15.63;;;13.25;;
34200;SDS011;20469;55.638;37.670;2023-09-19T07:30:44;16.85;;;13.57;;
34200;SDS011;20469;55.638;37.670;2023-09-19T07:33:12;18.23;;;14.10;;
34200;SDS011;20469;55.638;37.670;2023-09-19T07:35:44;19.33;;;13.02;;
34200;SDS011;20469;55.638;37.670;2023-09-19T07:38:13;19.43;;;13.70;;
34200;SDS011;20469;55.638;37.670;2023-09-19T07:40:41;16.73;;;13.00;;
34200;SDS011;20469;55.638;37.670;2023-09-19T07:43:08;18.10;;;12.70;;
34200;SDS011;20469;55.638;37.670;2023-09-19T07:45:37;16.55;;;13.00;;
34200;SDS011;20469;55.638;37.670;2023-09-19T07:48:04;17.20;;;13.40;;
34200;SDS011;20469;55.638;37.670;2023-09-19T07:50:33;21.23;;;14.20;;
34200;SDS011;20469;55.638;37.670;2023-09-19T07:53:04;21.45;;;13.85;;
34200;SDS011;20469;55.638;37.670;2023-09-19T07:55:32;17.10;;;13.43;;
34200;SDS011;20469;55.638;37.670;2023-09-19T07:58:01;18.83;;;13.90;;
34200;SDS011;20469;55.638;37.670;2023-09-19T08:00:31;16.98;;;13.50;;
34200;SDS011;20469;55.638;37.670;2023-09-19T08:03:01;15.15;;;12.77;;
34200;SDS011;20469;55.638;37.670;2023-09-19T08:05:43;17.50;;;12.70;;
34200;SDS011;20469;55.638;37.670;2023-09-19T08:08:12;18.42;;;13.40;;
34200;SDS011;20469;55.638;37.670;2023-09-19T08:10:42;18.75;;;13.80;;
34200;SDS011;20469;55.638;37.670;2023-09-19T08:13:13;17.30;;;13.40;;
34200;SDS011;20469;55.638;37.670;2023-09-19T08:15:45;18.58;;;13.23;;
34200;SDS011;20469;55.638;37.670;2023-09-19T08:18:14;19.27;;;13.10;;
34200;SDS011;20469;55.638;37.670;2023-09-19T08:20:51;20.17;;;12.90;;
34200;SDS011;20469;55.638;37.670;2023-09-19T08:23:19;14.48;;;12.25;;
34200;SDS011;20469;55.638;37.670;2023-09-19T08:25:47;15.95;;;12.77;;
34200;SDS011;20469;55.638;37.670;2023-09-19T08:28:16;18.58;;;13.15;;
34200;SDS011;20469;55.638;37.670;2023-09-19T08:30:51;17.05;;;13.05;;
34200;SDS011;20469;55.638;37.670;2023-09-19T08:33:21;18.88;;;12.90;;
34200;SDS011;20469;55.638;37.670;2023-09-19T08:35:49;20.90;;;12.88;;
34200;SDS011;20469;55.638;37.670;2023-09-19T08:38:17;15.27;;;11.98;;
34200;SDS011;20469;55.638;37.670;2023-09-19T08:40:45;17.38;;;11.27;;
34200;SDS011;20469;55.638;37.670;2023-09-19T08:43:13;15.82;;;12.07;;
34200;SDS011;20469;55.638;37.670;2023-09-19T08:45:41;14.30;;;11.95;;
34200;SDS011;20469;55.638;37.670;2023-09-19T08:48:20;15.65;;;11.63;;
34200;SDS011;20469;55.638;37.670;2023-09-19T08:51:02;15.68;;;12.32;;
34200;SDS011;20469;55.638;37.670;2023-09-19T08:56:18;18.00;;;12.00;;
34200;SDS011;20469;55.638;37.670;2023-09-19T08:58:53;18.77;;;13.35;;
34200;SDS011;20469;55.638;37.670;2023-09-19T09:01:23;17.17;;;13.15;;
34200;SDS011;20469;55.638;37.670;2023-09-19T09:03:54;17.67;;;12.73;;
34200;SDS011;20469;55.638;37.670;2023-09-19T09:06:23;20.65;;;12.68;;
34200;SDS011;20469;55.638;37.670;2023-09-19T09:08:52;18.15;;;12.68;;
34200;SDS011;20469;55.638;37.670;2023-09-19T09:11:22;16.33;;;12.85;;
34200;SDS011;20469;55.638;37.670;2023-09-19T09:13:51;20.30;;;13.25;;
34200;SDS011;20469;55.638;37.670;2023-09-19T09:16:19;21.80;;;13.15;;
34200;SDS011;20469;55.638;37.670;2023-09-19T09:18:48;16.88;;;12.98;;
34200;SDS011;20469;55.638;37.670;2023-09-19T09:21:20;15.80;;;13.15;;
34200;SDS011;20469;55.638;37.670;2023-09-19T09:23:49;17.77;;;13.30;;
34200;SDS011;20469;55.638;37.670;2023-09-19T09:29:05;20.33;;;12.93;;
34200;SDS011;20469;55.638;37.670;2023-09-19T09:31:33;17.80;;;12.52;;
34200;SDS011;20469;55.638;37.670;2023-09-19T09:34:01;22.38;;;12.98;;
34200;SDS011;20469;55.638;37.670;2023-09-19T09:36:36;17.23;;;12.85;;
34200;SDS011;20469;55.638;37.670;2023-09-19T09:41:51;16.75;;;12.65;;
34200;SDS011;20469;55.638;37.670;2023-09-19T09:44:25;19.23;;;12.48;;
34200;SDS011;20469;55.638;37.670;2023-09-19T09:46:54;20.52;;;12.80;;
34200;SDS011;20469;55.638;37.670;2023-09-19T09:49:42;20.10;;;11.48;;
34200;SDS011;20469;55.638;37.670;2023-09-19T09:52:21;20.15;;;11.65;;
34200;SDS011;20469;55.638;37.670;2023-09-19T09:55:01;15.88;;;10.75;;
34200;SDS011;20469;55.638;37.670;2023-09-19T09:57:37;15.23;;;11.43;;
34200;SDS011;20469;55.638;37.670;2023-09-19T10:00:08;15.68;;;11.35;;
34200;SDS011;20469;55.638;37.670;2023-09-19T10:02:41;17.48;;;10.68;;
34200;SDS011;20469;55.638;37.670;2023-09-19T10:05:16;17.02;;;11.40;;
34200;SDS011;20469;55.638;37.670;2023-09-19T10:08:09;16.20;;;10.85;;
34200;SDS011;20469;55.638;37.670;2023-09-19T10:10:40;18.25;;;10.98;;
34200;SDS011;20469;55.638;37.670;2023-09-19T10:13:10;17.73;;;11.27;;
34200;SDS011;20469;55.638;37.670;2023-09-19T10:15:47;13.35;;;10.68;;
34200;SDS011;20469;55.638;37.670;2023-09-19T10:18:26;15.85;;;11.32;;
34200;SDS011;20469;55.638;37.670;2023-09-19T10:20:56;15.73;;;10.98;;
34200;SDS011;20469;55.638;37.670;2023-09-19T10:23:27;18.45;;;11.27;;
34200;SDS011;20469;55.638;37.670;2023-09-19T10:25:57;18.15;;;10.40;;
34200;SDS011;20469;55.638;37.670;2023-09-19T10:28:32;16.08;;;10.95;;
34200;SDS011;20469;55.638;37.670;2023-09-19T10:31:08;16.33;;;9.85;;
34200;SDS011;20469;55.638;37.670;2023-09-19T10:33:48;15.05;;;8.90;;
34200;SDS011;20469;55.638;37.670;2023-09-19T10:36:17;14.15;;;9.70;;
34200;SDS011;20469;55.638;37.670;2023-09-19T10:38:47;16.67;;;9.38;;
34200;SDS011;20469;55.638;37.670;2023-09-19T10:41:17;19.00;;;9.05;;
34200;SDS011;20469;55.638;37.670;2023-09-19T10:43:52;18.58;;;8.95;;
34200;SDS011;20469;55.638;37.670;2023-09-19T10:46:25;15.07;;;9.73;;
34200;SDS011;20469;55.638;37.670;2023-09-19T10:48:53;15.77;;;9.25;;
34200;SDS011;20469;55.638;37.670;2023-09-19T10:51:24;14.00;;;9.50;;
34200;SDS011;20469;55.638;37.670;2023-09-19T10:53:59;13.32;;;8.48;;
34200;SDS011;20469;55.638;37.670;2023-09-19T10:56:36;13.02;;;8.43;;
34200;SDS011;20469;55.638;37.670;2023-09-19T10:59:07;12.32;;;9.40;;
34200;SDS011;20469;55.638;37.670;2023-09-19T11:01:43;16.35;;;9.52;;
34200;SDS011;20469;55.638;37.670;2023-09-19T11:07:17;16.67;;;8.93;;
34200;SDS011;20469;55.638;37.670;2023-09-19T11:12:58;11.70;;;8.43;;
34200;SDS011;20469;55.638;37.670;2023-09-19T11:15:05;11.43;;;8.63;;
34200;SDS011;20469;55.638;37.670;2023-09-19T11:17:38;14.13;;;8.75;;
34200;SDS011;20469;55.638;37.670;2023-09-19T11:30:37;15.13;;;9.45;;
34200;SDS011;20469;55.638;37.670;2023-09-19T11:33:21;15.27;;;8.90;;
34200;SDS011;20469;55.638;37.670;2023-09-19T11:43:48;15.98;;;8.18;;
34200;SDS011;20469;55.638;37.670;2023-09-19T11:46:23;16.23;;;9.23;;
34200;SDS011;20469;55.638;37.670;2023-09-19T11:48:52;13.23;;;8.25;;
34200;SDS011;20469;55.638;37.670;2023-09-19T11:53:56;16.20;;;8.98;;
34200;SDS011;20469;55.638;37.670;2023-09-19T11:56:27;17.60;;;8.35;;
34200;SDS011;20469;55.638;37.670;2023-09-19T11:58:57;11.57;;;9.57;;
34200;SDS011;20469;55.638;37.670;2023-09-19T12:01:33;15.82;;;8.30;;
34200;SDS011;20469;55.638;37.670;2023-09-19T12:04:02;13.63;;;8.52;;
34200;SDS011;20469;55.638;37.670;2023-09-19T12:06:32;13.77;;;8.60;;
34200;SDS011;20469;55.638;37.670;2023-09-19T12:09:02;13.43;;;8.07;;
34200;SDS011;20469;55.638;37.670;2023-09-19T12:11:33;16.67;;;8.48;;
34200;SDS011;20469;55.638;37.670;2023-09-19T12:14:11;14.52;;;7.75;;
34200;SDS011;20469;55.638;37.670;2023-09-19T12:16:40;13.60;;;7.57;;
34200;SDS011;20469;55.638;37.670;2023-09-19T12:19:22;12.35;;;7.30;;
34200;SDS011;20469;55.638;37.670;2023-09-19T12:24:34;9.25;;;7.32;;
34200;SDS011;20469;55.638;37.670;2023-09-19T12:27:05;11.48;;;7.07;;
34200;SDS011;20469;55.638;37.670;2023-09-19T12:29:44;11.23;;;6.90;;
34200;SDS011;20469;55.638;37.670;2023-09-19T12:32:12;11.43;;;6.65;;
34200;SDS011;20469;55.638;37.670;2023-09-19T12:34:50;11.60;;;6.95;;
34200;SDS011;20469;55.638;37.670;2023-09-19T12:37:20;11.70;;;7.03;;
34200;SDS011;20469;55.638;37.670;2023-09-19T12:39:49;9.82;;;6.93;;
34200;SDS011;20469;55.638;37.670;2023-09-19T12:42:19;11.77;;;6.90;;
34200;SDS011;20469;55.638;37.670;2023-09-19T12:44:48;16.98;;;7.03;;
34200;SDS011;20469;55.638;37.670;2023-09-19T12:47:18;13.57;;;7.28;;
34200;SDS011;20469;55.638;37.670;2023-09-19T12:52:50;9.85;;;7.63;;
34200;SDS011;20469;55.638;37.670;2023-09-19T12:55:26;12.48;;;8.60;;
34200;SDS011;20469;55.638;37.670;2023-09-19T12:57:58;15.32;;;9.48;;
34200;SDS011;20469;55.638;37.670;2023-09-19T13:00:34;16.08;;;10.35;;
34200;SDS011;20469;55.638;37.670;2023-09-19T13:03:36;15.63;;;8.93;;
34200;SDS011;20469;55.638;37.670;2023-09-19T13:05:59;14.82;;;9.90;;
34200;SDS011;20469;55.638;37.670;2023-09-19T13:08:33;10.00;;;7.70;;
34200;SDS011;20469;55.638;37.670;2023-09-19T13:11:11;13.52;;;7.85;;
34200;SDS011;20469;55.638;37.670;2023-09-19T13:13:40;12.80;;;7.75;;
34200;SDS011;20469;55.638;37.670;2023-09-19T13:16:16;12.15;;;7.65;;
34200;SDS011;20469;55.638;37.670;2023-09-19T13:18:50;14.18;;;7.75;;
34200;SDS011;20469;55.638;37.670;2023-09-19T13:21:29;12.23;;;8.23;;
34200;SDS011;20469;55.638;37.670;2023-09-19T13:24:23;15.45;;;7.95;;
34200;SDS011;20469;55.638;37.670;2023-09-19T13:26:55;10.13;;;6.63;;
34200;SDS011;20469;55.638;37.670;2023-09-19T13:29:23;11.98;;;7.57;;
34200;SDS011;20469;55.638;37.670;2023-09-19T13:31:51;13.10;;;8.00;;
34200;SDS011;20469;55.638;37.670;2023-09-19T13:34:20;13.73;;;7.70;;
34200;SDS011;20469;55.638;37.670;2023-09-19T13:36:48;11.90;;;7.70;;
34200;SDS011;20469;55.638;37.670;2023-09-19T13:39:16;16.63;;;7.93;;
34200;SDS011;20469;55.638;37.670;2023-09-19T13:41:44;10.52;;;7.50;;
34200;SDS011;20469;55.638;37.670;2023-09-19T13:44:13;16.33;;;8.05;;
34200;SDS011;20469;55.638;37.670;2023-09-19T13:46:43;10.60;;;7.47;;
34200;SDS011;20469;55.638;37.670;2023-09-19T13:49:13;12.90;;;7.38;;
34200;SDS011;20469;55.638;37.670;2023-09-19T13:51:41;10.18;;;7.32;;
34200;SDS011;20469;55.638;37.670;2023-09-19T13:54:11;10.30;;;8.02;;
34200;SDS011;20469;55.638;37.670;2023-09-19T13:56:39;11.02;;;7.85;;
34200;SDS011;20469;55.638;37.670;2023-09-19T13:59:07;13.05;;;9.35;;
34200;SDS011;20469;55.638;37.670;2023-09-19T14:01:35;12.15;;;8.82;;
34200;SDS011;20469;55.638;37.670;2023-09-19T14:04:04;14.55;;;8.43;;
34200;SDS011;20469;55.638;37.670;2023-09-19T14:06:32;13.57;;;8.70;;
34200;SDS011;20469;55.638;37.670;2023-09-19T14:09:01;12.57;;;8.43;;
34200;SDS011;20469;55.638;37.670;2023-09-19T14:11:28;10.57;;;8.45;;
34200;SDS011;20469;55.638;37.670;2023-09-19T14:13:57;16.52;;;9.35;;
34200;SDS011;20469;55.638;37.670;2023-09-19T14:16:24;14.07;;;8.57;;
34200;SDS011;20469;55.638;37.670;2023-09-19T14:18:57;15.48;;;9.00;;
34200;SDS011;20469;55.638;37.670;2023-09-19T14:21:25;15.80;;;8.63;;
34200;SDS011;20469;55.638;37.670;2023-09-19T14:23:53;14.48;;;9.13;;
34200;SDS011;20469;55.638;37.670;2023-09-19T14:26:21;20.42;;;8.95;;
34200;SDS011;20469;55.638;37.670;2023-09-19T14:28:49;16.02;;;9.07;;
34200;SDS011;20469;55.638;37.670;2023-09-19T14:31:17;13.40;;;9.13;;
34200;SDS011;20469;55.638;37.670;2023-09-19T14:33:45;15.15;;;9.05;;
34200;SDS011;20469;55.638;37.670;2023-09-19T14:36:19;16.00;;;9.35;;
34200;SDS011;20469;55.638;37.670;2023-09-19T14:38:48;12.38;;;8.90;;
34200;SDS011;20469;55.638;37.670;2023-09-19T14:41:20;13.68;;;8.63;;
34200;SDS011;20469;55.638;37.670;2023-09-19T14:43:49;18.13;;;9.27;;
34200;SDS011;20469;55.638;37.670;2023-09-19T14:46:16;14.18;;;9.30;;
34200;SDS011;20469;55.638;37.670;2023-09-19T14:48:45;16.10;;;9.07;;
34200;SDS011;20469;55.638;37.670;2023-09-19T14:51:17;15.32;;;9.27;;
34200;SDS011;20469;55.638;37.670;2023-09-19T14:53:45;19.10;;;9.63;;
34200;SDS011;20469;55.638;37.670;2023-09-19T14:56:13;16.15;;;9.38;;
34200;SDS011;20469;55.638;37.670;2023-09-19T14:58:45;15.88;;;9.60;;
34200;SDS011;20469;55.638;37.670;2023-09-19T15:01:13;15.93;;;9.82;;
34200;SDS011;20469;55.638;37.670;2023-09-19T15:03:41;15.55;;;9.82;;
34200;SDS011;20469;55.638;37.670;2023-09-19T15:06:10;16.42;;;9.05;;
34200;SDS011;20469;55.638;37.670;2023-09-19T15:08:41;18.75;;;9.68;;
34200;SDS011;20469;55.638;37.670;2023-09-19T15:11:15;18.73;;;10.00;;
34200;SDS011;20469;55.638;37.670;2023-09-19T15:13:44;18.40;;;12.07;;
34200;SDS011;20469;55.638;37.670;2023-09-19T15:16:12;19.70;;;9.85;;
34200;SDS011;20469;55.638;37.670;2023-09-19T15:18:41;17.15;;;10.73;;
34200;SDS011;20469;55.638;37.670;2023-09-19T15:21:10;18.45;;;10.52;;
34200;SDS011;20469;55.638;37.670;2023-09-19T15:23:38;15.65;;;10.30;;
34200;SDS011;20469;55.638;37.670;2023-09-19T15:26:06;18.35;;;10.55;;
34200;SDS011;20469;55.638;37.670;2023-09-19T15:28:44;19.17;;;10.45;;
34200;SDS011;20469;55.638;37.670;2023-09-19T15:31:12;18.02;;;10.80;;
34200;SDS011;20469;55.638;37.670;2023-09-19T15:33:40;23.65;;;13.65;;